Sakaide Maru — 3EYR6 — position and weather

sailwx.info

Track history (hours):
 
Tides and Currents Weather Stations Pressure Air Temp Water Temp Dewpoint Dewpoint Depression Visibility Wind Speed Wind Dir Waves Ship Positions

Sakaide Maru

Last reported at 2015-May-05 12:06 UTC. Time now 2015-May-28 16:14 UTC.
Position N 33°58' E 134°57'.
Warning: this ship's position is 23 days out of date.

Length 255 m; draft 7.9 m.

Type: Cargo ship. MMSI: 354898000.

Date/timePositionNaut miles runAvg speedWind from/ knotsBaromVisibWave heightAir tempDewpointWater temp
2015-May-05 12:06N 33°58' E 134°57'711.9
2015-May-05 11:33N 34°04' E 134°58'1211.4
2015-May-05 10:30N 34°16' E 134°58'1212.7
2015-May-05 09:33N 34°27' E 135°04'8 8.3
2015-May-05 08:33N 34°36' E 135°03'1111.2
2015-May-05 07:33N 34°34' E 134°50'1513.1
2015-May-05 06:23N 34°28' E 134°33'  
2015-May-01 01:23N 34°35' E 134°51'810.0
2015-May-01 00:32N 34°37' E 135°01'7 7.0
2015-Apr-30 23:33N 34°33' E 135°08'1010.4
2015-Apr-30 22:33N 34°23' E 135°03'1110.9
2015-Apr-30 21:34N 34°13' E 134°59'9 9.4
2015-Apr-30 20:33N 34°03' E 134°59'8 8.1
2015-Apr-30 19:33N 33°55' E 134°58'  
Track history (hours):
 
Tides and Currents Weather Stations Pressure Air Temp Water Temp Dewpoint Dewpoint Depression Visibility Wind Speed Wind Dir Waves Ship Positions

Sakaide Maru

Last reported at 2015-May-05 12:06 UTC. Time now 2015-May-28 16:14 UTC.
Position N 33°58' E 134°57'.
Warning: this ship's position is 23 days out of date.

Length 255 m; draft 7.9 m.

Type: Cargo ship. MMSI: 354898000.

Date/timePositionNaut miles runAvg speedWind from/ knotsBaromVisibWave heightAir tempDewpointWater temp
2015-May-05 12:06N 33°58' E 134°57'711.9
2015-May-05 11:33N 34°04' E 134°58'1211.4
2015-May-05 10:30N 34°16' E 134°58'1212.7
2015-May-05 09:33N 34°27' E 135°04'8 8.3
2015-May-05 08:33N 34°36' E 135°03'1111.2
2015-May-05 07:33N 34°34' E 134°50'1513.1
2015-May-05 06:23N 34°28' E 134°33'  
2015-May-01 01:23N 34°35' E 134°51'810.0
2015-May-01 00:32N 34°37' E 135°01'7 7.0
2015-Apr-30 23:33N 34°33' E 135°08'1010.4
2015-Apr-30 22:33N 34°23' E 135°03'1110.9
2015-Apr-30 21:34N 34°13' E 134°59'9 9.4
2015-Apr-30 20:33N 34°03' E 134°59'8 8.1
2015-Apr-30 19:33N 33°55' E 134°58'  

Dump ship's entire track history